sensor_id;sensor_type;location;lat;lon;timestamp;pressure;altitude;pressure_sealevel;temperature;humidity
59971;BME280;45825;45.434;9.116;2022-09-02T00:00:20;100253.44;;;22.94;53.41
59971;BME280;45825;45.434;9.116;2022-09-02T00:02:48;100258.78;;;22.85;53.88
59971;BME280;45825;45.434;9.116;2022-09-02T00:05:13;100256.75;;;22.87;53.98
59971;BME280;45825;45.434;9.116;2022-09-02T00:07:39;100264.97;;;22.94;54.03
59971;BME280;45825;45.434;9.116;2022-09-02T00:10:04;100267.66;;;22.94;54.30
59971;BME280;45825;45.434;9.116;2022-09-02T00:12:29;100267.16;;;22.99;54.45
59971;BME280;45825;45.434;9.116;2022-09-02T00:14:55;100268.16;;;22.98;54.50
59971;BME280;45825;45.434;9.116;2022-09-02T00:17:20;100268.81;;;22.92;54.82
59971;BME280;45825;45.434;9.116;2022-09-02T00:19:45;100268.00;;;22.91;55.12
59971;BME280;45825;45.434;9.116;2022-09-02T00:22:11;100262.78;;;22.89;55.75
59971;BME280;45825;45.434;9.116;2022-09-02T00:24:36;100267.81;;;22.84;56.29
59971;BME280;45825;45.434;9.116;2022-09-02T00:27:02;100266.84;;;22.94;56.45
59971;BME280;45825;45.434;9.116;2022-09-02T00:29:28;100263.81;;;22.97;56.46
59971;BME280;45825;45.434;9.116;2022-09-02T00:31:54;100263.31;;;22.93;56.60
59971;BME280;45825;45.434;9.116;2022-09-02T00:34:19;100267.50;;;22.96;56.72
59971;BME280;45825;45.434;9.116;2022-09-02T00:36:45;100263.47;;;22.92;57.41
59971;BME280;45825;45.434;9.116;2022-09-02T00:39:10;100258.09;;;22.92;58.06
59971;BME280;45825;45.434;9.116;2022-09-02T00:41:38;100254.41;;;22.84;58.74
59971;BME280;45825;45.434;9.116;2022-09-02T00:44:07;100253.41;;;22.85;58.50
59971;BME280;45825;45.434;9.116;2022-09-02T00:46:34;100258.25;;;22.82;58.76
59971;BME280;45825;45.434;9.116;2022-09-02T00:51:27;100249.88;;;22.85;58.99
59971;BME280;45825;45.434;9.116;2022-09-02T00:53:54;100253.44;;;22.94;59.11
59971;BME280;45825;45.434;9.116;2022-09-02T00:56:23;100251.25;;;22.89;59.26
59971;BME280;45825;45.434;9.116;2022-09-02T00:58:50;100246.53;;;22.91;59.29
59971;BME280;45825;45.434;9.116;2022-09-02T01:01:16;100251.06;;;22.91;59.18
59971;BME280;45825;45.434;9.116;2022-09-02T01:03:42;100248.22;;;22.92;59.64
59971;BME280;45825;45.434;9.116;2022-09-02T01:06:10;100249.38;;;22.81;60.09
59971;BME280;45825;45.434;9.116;2022-09-02T01:08:42;100248.19;;;22.75;60.06
59971;BME280;45825;45.434;9.116;2022-09-02T01:11:10;100252.72;;;22.75;60.43
59971;BME280;45825;45.434;9.116;2022-09-02T01:13:40;100251.03;;;22.66;60.73
59971;BME280;45825;45.434;9.116;2022-09-02T01:16:14;100255.38;;;22.67;61.11
59971;BME280;45825;45.434;9.116;2022-09-02T01:18:44;100255.53;;;22.57;61.59
59971;BME280;45825;45.434;9.116;2022-09-02T01:21:11;100249.69;;;22.62;61.67
59971;BME280;45825;45.434;9.116;2022-09-02T01:23:38;100252.69;;;22.67;61.59
59971;BME280;45825;45.434;9.116;2022-09-02T01:26:04;100239.16;;;22.68;61.11
59971;BME280;45825;45.434;9.116;2022-09-02T01:28:29;100245.66;;;22.66;61.31
59971;BME280;45825;45.434;9.116;2022-09-02T01:30:58;100241.13;;;22.58;61.43
59971;BME280;45825;45.434;9.116;2022-09-02T01:33:24;100239.78;;;22.62;61.61
59971;BME280;45825;45.434;9.116;2022-09-02T01:35:50;100254.06;;;22.63;61.06
59971;BME280;45825;45.434;9.116;2022-09-02T01:38:16;100247.31;;;22.58;61.32
59971;BME280;45825;45.434;9.116;2022-09-02T01:40:41;100261.25;;;22.62;61.08
59971;BME280;45825;45.434;9.116;2022-09-02T01:43:10;100260.25;;;22.55;61.18
59971;BME280;45825;45.434;9.116;2022-09-02T01:45:38;100259.06;;;22.49;61.08
59971;BME280;45825;45.434;9.116;2022-09-02T01:48:07;100264.22;;;22.51;60.93
59971;BME280;45825;45.434;9.116;2022-09-02T01:50:35;100264.41;;;22.49;61.06
59971;BME280;45825;45.434;9.116;2022-09-02T01:53:00;100265.91;;;22.52;60.79
59971;BME280;45825;45.434;9.116;2022-09-02T01:55:28;100259.38;;;22.54;60.46
59971;BME280;45825;45.434;9.116;2022-09-02T01:57:54;100263.69;;;22.47;60.59
59971;BME280;45825;45.434;9.116;2022-09-02T02:00:20;100259.72;;;22.51;60.63
59971;BME280;45825;45.434;9.116;2022-09-02T02:02:45;100260.25;;;22.55;60.17
59971;BME280;45825;45.434;9.116;2022-09-02T02:05:11;100268.44;;;22.53;59.85
59971;BME280;45825;45.434;9.116;2022-09-02T02:07:38;100262.91;;;22.55;59.48
59971;BME280;45825;45.434;9.116;2022-09-02T02:10:05;100264.59;;;22.56;59.36
59971;BME280;45825;45.434;9.116;2022-09-02T02:12:32;100260.91;;;22.57;59.20
59971;BME280;45825;45.434;9.116;2022-09-02T02:14:57;100263.91;;;22.54;59.26
59971;BME280;45825;45.434;9.116;2022-09-02T02:17:25;100256.03;;;22.52;59.07
59971;BME280;45825;45.434;9.116;2022-09-02T02:19:50;100254.88;;;22.55;59.03
59971;BME280;45825;45.434;9.116;2022-09-02T02:22:15;100260.72;;;22.58;58.48
59971;BME280;45825;45.434;9.116;2022-09-02T02:24:41;100258.38;;;22.55;58.52
59971;BME280;45825;45.434;9.116;2022-09-02T02:27:06;100257.56;;;22.55;58.60
59971;BME280;45825;45.434;9.116;2022-09-02T02:29:32;100254.06;;;22.63;58.44
59971;BME280;45825;45.434;9.116;2022-09-02T02:31:57;100257.75;;;22.62;58.16
59971;BME280;45825;45.434;9.116;2022-09-02T02:34:23;100255.03;;;22.53;58.19
59971;BME280;45825;45.434;9.116;2022-09-02T02:36:48;100256.22;;;22.59;58.15
59971;BME280;45825;45.434;9.116;2022-09-02T02:39:13;100258.91;;;22.59;58.18
59971;BME280;45825;45.434;9.116;2022-09-02T02:41:39;100259.72;;;22.59;58.22
59971;BME280;45825;45.434;9.116;2022-09-02T02:44:05;100255.53;;;22.57;58.32
59971;BME280;45825;45.434;9.116;2022-09-02T02:46:31;100263.59;;;22.57;58.08
59971;BME280;45825;45.434;9.116;2022-09-02T02:49:02;100255.22;;;22.60;58.09
59971;BME280;45825;45.434;9.116;2022-09-02T02:51:29;100252.88;;;22.57;58.26
59971;BME280;45825;45.434;9.116;2022-09-02T02:53:55;100262.41;;;22.59;58.18
59971;BME280;45825;45.434;9.116;2022-09-02T02:56:20;100266.09;;;22.58;57.98
59971;BME280;45825;45.434;9.116;2022-09-02T02:58:46;100258.91;;;22.59;57.94
59971;BME280;45825;45.434;9.116;2022-09-02T03:01:12;100262.09;;;22.63;57.89
59971;BME280;45825;45.434;9.116;2022-09-02T03:03:37;100262.09;;;22.63;57.55
59971;BME280;45825;45.434;9.116;2022-09-02T03:06:03;100253.03;;;22.64;57.36
59971;BME280;45825;45.434;9.116;2022-09-02T03:08:28;100265.06;;;22.59;57.02
59971;BME280;45825;45.434;9.116;2022-09-02T03:10:54;100263.91;;;22.62;57.06
59971;BME280;45825;45.434;9.116;2022-09-02T03:13:21;100259.41;;;22.63;56.61
59971;BME280;45825;45.434;9.116;2022-09-02T03:15:47;100259.06;;;22.66;56.42
59971;BME280;45825;45.434;9.116;2022-09-02T03:18:13;100253.19;;;22.62;55.64
59971;BME280;45825;45.434;9.116;2022-09-02T03:20:40;100254.72;;;22.65;55.60
59971;BME280;45825;45.434;9.116;2022-09-02T03:23:06;100251.38;;;22.63;55.35
59971;BME280;45825;45.434;9.116;2022-09-02T03:25:33;100246.53;;;22.66;55.01
59971;BME280;45825;45.434;9.116;2022-09-02T03:28:00;100249.00;;;22.68;54.53
59971;BME280;45825;45.434;9.116;2022-09-02T03:30:27;100248.34;;;22.66;54.17
59971;BME280;45825;45.434;9.116;2022-09-02T03:32:57;100241.16;;;22.66;54.06
59971;BME280;45825;45.434;9.116;2022-09-02T03:35:25;100243.13;;;22.64;54.04
59971;BME280;45825;45.434;9.116;2022-09-02T03:37:50;100245.34;;;22.60;53.63
59971;BME280;45825;45.434;9.116;2022-09-02T03:40:22;100240.94;;;22.59;53.68
59971;BME280;45825;45.434;9.116;2022-09-02T03:42:48;100250.00;;;22.58;53.66
59971;BME280;45825;45.434;9.116;2022-09-02T03:45:14;100246.84;;;22.55;53.23
59971;BME280;45825;45.434;9.116;2022-09-02T03:47:42;100243.31;;;22.54;53.37
59971;BME280;45825;45.434;9.116;2022-09-02T03:50:16;100240.78;;;22.53;53.32
59971;BME280;45825;45.434;9.116;2022-09-02T03:52:42;100235.59;;;22.51;53.03
59971;BME280;45825;45.434;9.116;2022-09-02T03:55:08;100241.75;;;22.43;53.41
59971;BME280;45825;45.434;9.116;2022-09-02T03:57:34;100241.41;;;22.46;53.37
59971;BME280;45825;45.434;9.116;2022-09-02T04:00:00;100241.56;;;22.45;53.27
59971;BME280;45825;45.434;9.116;2022-09-02T04:02:26;100255.97;;;22.44;53.39
59971;BME280;45825;45.434;9.116;2022-09-02T04:04:51;100253.13;;;22.37;53.51
59971;BME280;45825;45.434;9.116;2022-09-02T04:07:16;100245.22;;;22.36;53.77
59971;BME280;45825;45.434;9.116;2022-09-02T04:09:41;100253.94;;;22.29;53.48
59971;BME280;45825;45.434;9.116;2022-09-02T04:12:07;100252.06;;;22.30;53.51
59971;BME280;45825;45.434;9.116;2022-09-02T04:14:32;100260.13;;;22.30;53.72
59971;BME280;45825;45.434;9.116;2022-09-02T04:16:57;100248.25;;;22.32;54.16
59971;BME280;45825;45.434;9.116;2022-09-02T04:19:23;100242.22;;;22.30;53.96
59971;BME280;45825;45.434;9.116;2022-09-02T04:21:48;100253.25;;;22.27;54.20
59971;BME280;45825;45.434;9.116;2022-09-02T04:24:14;100245.03;;;22.29;54.28
59971;BME280;45825;45.434;9.116;2022-09-02T04:26:39;100242.72;;;22.34;54.18
59971;BME280;45825;45.434;9.116;2022-09-02T04:29:05;100257.31;;;22.40;54.21
59971;BME280;45825;45.434;9.116;2022-09-02T04:31:32;100249.28;;;22.40;54.10
59971;BME280;45825;45.434;9.116;2022-09-02T04:33:57;100247.22;;;22.33;54.15
59971;BME280;45825;45.434;9.116;2022-09-02T04:36:24;100250.06;;;22.32;54.26
59971;BME280;45825;45.434;9.116;2022-09-02T04:38:50;100242.53;;;22.27;54.52
59971;BME280;45825;45.434;9.116;2022-09-02T04:41:19;100254.94;;;22.28;54.62
59971;BME280;45825;45.434;9.116;2022-09-02T04:43:45;100244.72;;;22.32;54.25
59971;BME280;45825;45.434;9.116;2022-09-02T04:46:12;100251.09;;;22.39;54.30
59971;BME280;45825;45.434;9.116;2022-09-02T04:48:39;100249.94;;;22.42;54.34
59971;BME280;45825;45.434;9.116;2022-09-02T04:51:17;100262.50;;;22.41;54.51
59971;BME280;45825;45.434;9.116;2022-09-02T04:53:43;100263.84;;;22.37;54.53
59971;BME280;45825;45.434;9.116;2022-09-02T04:56:12;100263.50;;;22.40;54.71
59971;BME280;45825;45.434;9.116;2022-09-02T04:58:39;100253.94;;;22.38;54.54
59971;BME280;45825;45.434;9.116;2022-09-02T05:01:11;100265.69;;;22.45;54.25
59971;BME280;45825;45.434;9.116;2022-09-02T05:03:42;100264.88;;;22.44;54.64
59971;BME280;45825;45.434;9.116;2022-09-02T05:06:09;100278.56;;;22.41;54.44
59971;BME280;45825;45.434;9.116;2022-09-02T05:08:35;100272.69;;;22.38;54.61
59971;BME280;45825;45.434;9.116;2022-09-02T05:13:32;100280.44;;;22.41;54.83
59971;BME280;45825;45.434;9.116;2022-09-02T05:15:57;100279.28;;;22.43;54.82
59971;BME280;45825;45.434;9.116;2022-09-02T05:18:22;100282.25;;;22.40;54.58
59971;BME280;45825;45.434;9.116;2022-09-02T05:23:13;100291.44;;;22.38;54.90
59971;BME280;45825;45.434;9.116;2022-09-02T05:25:39;100291.97;;;22.41;54.40
59971;BME280;45825;45.434;9.116;2022-09-02T05:28:06;100293.50;;;22.44;54.46
59971;BME280;45825;45.434;9.116;2022-09-02T05:30:40;100294.66;;;22.41;54.70
59971;BME280;45825;45.434;9.116;2022-09-02T05:33:06;100290.97;;;22.42;54.49
59971;BME280;45825;45.434;9.116;2022-09-02T05:35:32;100296.19;;;22.44;54.79
59971;BME280;45825;45.434;9.116;2022-09-02T05:37:57;100299.19;;;22.41;54.75
59971;BME280;45825;45.434;9.116;2022-09-02T05:40:23;100294.38;;;22.53;54.69
59971;BME280;45825;45.434;9.116;2022-09-02T05:42:49;100295.56;;;22.50;55.03
59971;BME280;45825;45.434;9.116;2022-09-02T05:45:14;100300.13;;;22.58;54.77
59971;BME280;45825;45.434;9.116;2022-09-02T05:47:40;100300.28;;;22.65;54.61
59971;BME280;45825;45.434;9.116;2022-09-02T05:50:06;100305.84;;;22.71;54.67
59971;BME280;45825;45.434;9.116;2022-09-02T05:52:31;100302.34;;;22.79;54.71
59971;BME280;45825;45.434;9.116;2022-09-02T05:54:57;100302.69;;;22.84;54.50
59971;BME280;45825;45.434;9.116;2022-09-02T05:57:23;100303.88;;;22.90;54.40
59971;BME280;45825;45.434;9.116;2022-09-02T05:59:48;100310.22;;;22.97;54.38
59971;BME280;45825;45.434;9.116;2022-09-02T06:02:20;100315.59;;;22.97;54.42
59971;BME280;45825;45.434;9.116;2022-09-02T06:04:47;100312.94;;;23.06;54.33
59971;BME280;45825;45.434;9.116;2022-09-02T06:07:14;100309.94;;;23.09;54.21
59971;BME280;45825;45.434;9.116;2022-09-02T06:09:40;100318.66;;;23.02;54.32
59971;BME280;45825;45.434;9.116;2022-09-02T06:12:06;100312.91;;;22.97;54.58
59971;BME280;45825;45.434;9.116;2022-09-02T06:14:33;100317.81;;;22.94;54.79
59971;BME280;45825;45.434;9.116;2022-09-02T06:16:59;100317.63;;;22.87;54.49
59971;BME280;45825;45.434;9.116;2022-09-02T06:19:26;100317.78;;;22.85;54.83
59971;BME280;45825;45.434;9.116;2022-09-02T06:21:53;100318.81;;;22.93;55.12
59971;BME280;45825;45.434;9.116;2022-09-02T06:24:19;100318.09;;;22.91;54.83
59971;BME280;45825;45.434;9.116;2022-09-02T06:26:44;100316.47;;;22.98;54.72
59971;BME280;45825;45.434;9.116;2022-09-02T06:29:10;100313.44;;;23.01;54.74
59971;BME280;45825;45.434;9.116;2022-09-02T06:31:39;100325.69;;;23.12;54.74
59971;BME280;45825;45.434;9.116;2022-09-02T06:34:05;100318.84;;;23.17;53.92
59971;BME280;45825;45.434;9.116;2022-09-02T06:36:31;100321.31;;;23.19;53.81
59971;BME280;45825;45.434;9.116;2022-09-02T06:38:58;100323.50;;;23.24;53.95
59971;BME280;45825;45.434;9.116;2022-09-02T06:41:28;100326.38;;;23.14;53.56
59971;BME280;45825;45.434;9.116;2022-09-02T06:43:56;100316.28;;;23.08;54.37
59971;BME280;45825;45.434;9.116;2022-09-02T06:46:28;100320.00;;;22.98;54.07
59971;BME280;45825;45.434;9.116;2022-09-02T06:48:54;100326.16;;;22.91;54.20
59971;BME280;45825;45.434;9.116;2022-09-02T06:51:40;100325.66;;;22.95;54.62
59971;BME280;45825;45.434;9.116;2022-09-02T06:54:09;100326.66;;;22.86;54.92
59971;BME280;45825;45.434;9.116;2022-09-02T06:56:35;100329.69;;;22.91;54.56
59971;BME280;45825;45.434;9.116;2022-09-02T06:59:02;100332.72;;;23.05;54.62
59971;BME280;45825;45.434;9.116;2022-09-02T07:01:30;100326.66;;;22.94;54.63
59971;BME280;45825;45.434;9.116;2022-09-02T07:03:56;100326.53;;;23.04;54.20
59971;BME280;45825;45.434;9.116;2022-09-02T07:06:48;100328.41;;;23.20;54.89
59971;BME280;45825;45.434;9.116;2022-09-02T07:09:19;100325.03;;;23.26;54.13
59971;BME280;45825;45.434;9.116;2022-09-02T07:11:46;100333.81;;;23.53;53.88
59971;BME280;45825;45.434;9.116;2022-09-02T07:14:14;100330.72;;;23.73;53.20
59971;BME280;45825;45.434;9.116;2022-09-02T07:16:45;100328.91;;;23.65;53.17
59971;BME280;45825;45.434;9.116;2022-09-02T07:19:11;100331.09;;;23.45;53.76
59971;BME280;45825;45.434;9.116;2022-09-02T07:21:37;100327.03;;;23.08;54.33
59971;BME280;45825;45.434;9.116;2022-09-02T07:24:05;100320.50;;;23.19;54.24
59971;BME280;45825;45.434;9.116;2022-09-02T07:26:30;100326.59;;;23.37;54.28
59971;BME280;45825;45.434;9.116;2022-09-02T07:28:55;100319.66;;;23.18;53.71
59971;BME280;45825;45.434;9.116;2022-09-02T07:31:21;100331.09;;;23.28;53.75
59971;BME280;45825;45.434;9.116;2022-09-02T07:33:47;100321.03;;;23.47;53.96
59971;BME280;45825;45.434;9.116;2022-09-02T07:36:13;100327.53;;;23.78;53.21
59971;BME280;45825;45.434;9.116;2022-09-02T07:38:40;100318.34;;;23.64;52.90
59971;BME280;45825;45.434;9.116;2022-09-02T07:41:07;100317.34;;;23.56;53.32
59971;BME280;45825;45.434;9.116;2022-09-02T07:43:34;100317.69;;;23.53;53.70
59971;BME280;45825;45.434;9.116;2022-09-02T07:46:00;100326.41;;;23.47;53.56
59971;BME280;45825;45.434;9.116;2022-09-02T07:48:27;100318.69;;;23.36;53.95
59971;BME280;45825;45.434;9.116;2022-09-02T07:50:53;100324.72;;;23.29;53.98
59971;BME280;45825;45.434;9.116;2022-09-02T07:53:19;100328.72;;;23.25;54.67
59971;BME280;45825;45.434;9.116;2022-09-02T07:55:45;100329.75;;;23.49;54.63
59971;BME280;45825;45.434;9.116;2022-09-02T07:58:13;100337.81;;;23.49;54.09
59971;BME280;45825;45.434;9.116;2022-09-02T08:00:40;100328.94;;;23.49;54.47
59971;BME280;45825;45.434;9.116;2022-09-02T08:03:07;100316.00;;;23.52;54.20
59971;BME280;45825;45.434;9.116;2022-09-02T08:05:33;100333.25;;;23.66;54.06
59971;BME280;45825;45.434;9.116;2022-09-02T08:07:59;100330.41;;;23.84;53.46
59971;BME280;45825;45.434;9.116;2022-09-02T08:10:25;100323.66;;;23.89;53.16
59971;BME280;45825;45.434;9.116;2022-09-02T08:12:54;100328.41;;;23.78;53.79
59971;BME280;45825;45.434;9.116;2022-09-02T08:15:20;100328.91;;;23.74;53.97
59971;BME280;45825;45.434;9.116;2022-09-02T08:17:47;100331.94;;;23.70;53.64
59971;BME280;45825;45.434;9.116;2022-09-02T08:20:13;100336.09;;;23.73;54.01
59971;BME280;45825;45.434;9.116;2022-09-02T08:22:39;100340.66;;;23.81;53.37
59971;BME280;45825;45.434;9.116;2022-09-02T08:25:05;100336.25;;;24.05;52.93
59971;BME280;45825;45.434;9.116;2022-09-02T08:27:31;100341.78;;;23.95;53.18
59971;BME280;45825;45.434;9.116;2022-09-02T08:29:57;100338.41;;;24.18;52.44
59971;BME280;45825;45.434;9.116;2022-09-02T08:32:23;100346.19;;;23.88;53.03
59971;BME280;45825;45.434;9.116;2022-09-02T08:34:49;100337.25;;;24.12;52.80
59971;BME280;45825;45.434;9.116;2022-09-02T08:37:14;100351.84;;;24.01;52.18
59971;BME280;45825;45.434;9.116;2022-09-02T08:39:40;100347.00;;;23.96;53.00
59971;BME280;45825;45.434;9.116;2022-09-02T08:42:46;100351.66;;;24.19;52.36
59971;BME280;45825;45.434;9.116;2022-09-02T08:45:13;100350.59;;;24.37;52.40
59971;BME280;45825;45.434;9.116;2022-09-02T08:47:44;100346.16;;;24.52;52.39
59971;BME280;45825;45.434;9.116;2022-09-02T08:50:14;100346.34;;;24.51;51.43
59971;BME280;45825;45.434;9.116;2022-09-02T08:55:21;100345.16;;;23.89;52.86
59971;BME280;45825;45.434;9.116;2022-09-02T08:57:49;100342.47;;;23.89;53.08
59971;BME280;45825;45.434;9.116;2022-09-02T09:00:15;100329.53;;;24.09;52.84
59971;BME280;45825;45.434;9.116;2022-09-02T09:02:53;100331.00;;;24.28;52.31
59971;BME280;45825;45.434;9.116;2022-09-02T09:08:03;100330.00;;;24.21;52.04
59971;BME280;45825;45.434;9.116;2022-09-02T09:13:46;100342.13;;;24.57;51.69
59971;BME280;45825;45.434;9.116;2022-09-02T09:16:41;100343.13;;;24.55;51.03
59971;BME280;45825;45.434;9.116;2022-09-02T09:21:59;100330.78;;;24.78;50.87
59971;BME280;45825;45.434;9.116;2022-09-02T09:24:40;100328.94;;;24.70;50.72
59971;BME280;45825;45.434;9.116;2022-09-02T09:27:11;100326.53;;;24.75;50.84
59971;BME280;45825;45.434;9.116;2022-09-02T09:29:37;100312.34;;;24.98;51.04
59971;BME280;45825;45.434;9.116;2022-09-02T09:32:03;100310.03;;;25.10;50.42
59971;BME280;45825;45.434;9.116;2022-09-02T09:34:55;100308.78;;;25.21;50.04
59971;BME280;45825;45.434;9.116;2022-09-02T09:39:54;100307.03;;;25.28;49.95
59971;BME280;45825;45.434;9.116;2022-09-02T09:42:32;100311.56;;;25.51;49.47
59971;BME280;45825;45.434;9.116;2022-09-02T09:44:58;100307.81;;;25.37;47.92
59971;BME280;45825;45.434;9.116;2022-09-02T09:47:24;100303.28;;;25.14;48.67
59971;BME280;45825;45.434;9.116;2022-09-02T09:50:26;100298.44;;;25.09;48.66
59971;BME280;45825;45.434;9.116;2022-09-02T09:52:52;100306.66;;;25.16;49.55
59971;BME280;45825;45.434;9.116;2022-09-02T09:55:19;100298.25;;;25.34;47.85
59971;BME280;45825;45.434;9.116;2022-09-02T09:57:47;100296.91;;;25.53;47.92
59971;BME280;45825;45.434;9.116;2022-09-02T10:00:30;100298.09;;;25.51;47.12
59971;BME280;45825;45.434;9.116;2022-09-02T10:03:01;100297.97;;;25.83;46.66
59971;BME280;45825;45.434;9.116;2022-09-02T10:05:36;100311.22;;;25.54;46.85
59971;BME280;45825;45.434;9.116;2022-09-02T10:08:05;100314.34;;;25.43;47.36
59971;BME280;45825;45.434;9.116;2022-09-02T10:11:18;100304.44;;;25.35;47.70
59971;BME280;45825;45.434;9.116;2022-09-02T10:13:44;100304.75;;;25.93;46.15
59971;BME280;45825;45.434;9.116;2022-09-02T10:19:29;100288.19;;;28.56;41.62
59971;BME280;45825;45.434;9.116;2022-09-02T10:22:11;100283.06;;;27.27;42.96
59971;BME280;45825;45.434;9.116;2022-09-02T10:30:48;100273.25;;;29.89;38.19
59971;BME280;45825;45.434;9.116;2022-09-02T10:36:05;100264.72;;;32.95;32.75
59971;BME280;45825;45.434;9.116;2022-09-02T10:38:43;100264.13;;;33.77;31.87
59971;BME280;45825;45.434;9.116;2022-09-02T10:47:01;100251.31;;;34.59;29.70
59971;BME280;45825;45.434;9.116;2022-09-02T10:55:40;100235.38;;;37.18;26.57
59971;BME280;45825;45.434;9.116;2022-09-02T11:00:36;100225.88;;;36.06;27.12
59971;BME280;45825;45.434;9.116;2022-09-02T11:03:19;100221.19;;;37.32;27.30
59971;BME280;45825;45.434;9.116;2022-09-02T11:06:02;100207.97;;;37.18;25.90
59971;BME280;45825;45.434;9.116;2022-09-02T11:08:51;100212.53;;;35.92;26.90
59971;BME280;45825;45.434;9.116;2022-09-02T11:11:24;100211.03;;;37.27;26.49
59971;BME280;45825;45.434;9.116;2022-09-02T11:14:18;100207.25;;;37.01;25.60
59971;BME280;45825;45.434;9.116;2022-09-02T11:16:53;100202.72;;;36.79;26.67
59971;BME280;45825;45.434;9.116;2022-09-02T11:19:33;100201.84;;;38.65;24.93
59971;BME280;45825;45.434;9.116;2022-09-02T11:22:13;100205.44;;;38.76;24.33
59971;BME280;45825;45.434;9.116;2022-09-02T11:24:51;100203.19;;;39.04;23.58
59971;BME280;45825;45.434;9.116;2022-09-02T11:27:33;100200.59;;;37.88;24.60
59971;BME280;45825;45.434;9.116;2022-09-02T11:30:05;100196.97;;;36.48;26.16
59971;BME280;45825;45.434;9.116;2022-09-02T11:32:49;100202.59;;;36.08;27.16
59971;BME280;45825;45.434;9.116;2022-09-02T11:35:37;100201.25;;;34.71;28.18
59971;BME280;45825;45.434;9.116;2022-09-02T11:43:47;100187.88;;;35.26;28.19
59971;BME280;45825;45.434;9.116;2022-09-02T11:54:46;100178.91;;;33.34;30.80
59971;BME280;45825;45.434;9.116;2022-09-02T11:57:22;100168.97;;;34.04;30.37
59971;BME280;45825;45.434;9.116;2022-09-02T12:02:45;100175.94;;;32.87;31.66
59971;BME280;45825;45.434;9.116;2022-09-02T12:13:08;100159.19;;;34.89;29.86
59971;BME280;45825;45.434;9.116;2022-09-02T12:15:35;100163.72;;;34.32;30.17
59971;BME280;45825;45.434;9.116;2022-09-02T12:18:32;100163.53;;;33.80;30.66
59971;BME280;45825;45.434;9.116;2022-09-02T12:26:14;100156.03;;;32.51;33.14
59971;BME280;45825;45.434;9.116;2022-09-02T12:28:41;100148.09;;;32.19;34.76
59971;BME280;45825;45.434;9.116;2022-09-02T12:31:10;100149.84;;;33.63;32.72
59971;BME280;45825;45.434;9.116;2022-09-02T12:41:57;100132.41;;;32.02;34.29
59971;BME280;45825;45.434;9.116;2022-09-02T12:47:05;100141.50;;;32.57;34.30
59971;BME280;45825;45.434;9.116;2022-09-02T12:49:46;100130.44;;;31.60;35.97
59971;BME280;45825;45.434;9.116;2022-09-02T12:55:24;100112.63;;;32.26;34.72
59971;BME280;45825;45.434;9.116;2022-09-02T12:57:53;100104.19;;;32.70;34.17
59971;BME280;45825;45.434;9.116;2022-09-02T13:00:34;100111.88;;;31.76;35.27
59971;BME280;45825;45.434;9.116;2022-09-02T13:05:55;100094.84;;;32.11;34.15
59971;BME280;45825;45.434;9.116;2022-09-02T13:11:30;100102.03;;;31.75;34.98
59971;BME280;45825;45.434;9.116;2022-09-02T13:31:24;100081.81;;;30.96;36.96
59971;BME280;45825;45.434;9.116;2022-09-02T13:33:58;100068.09;;;31.96;35.61
59971;BME280;45825;45.434;9.116;2022-09-02T13:36:28;100073.72;;;31.33;35.53
59971;BME280;45825;45.434;9.116;2022-09-02T13:38:55;100069.34;;;31.82;35.07
59971;BME280;45825;45.434;9.116;2022-09-02T13:41:28;100060.94;;;31.34;35.72
59971;BME280;45825;45.434;9.116;2022-09-02T13:44:07;100056.84;;;31.62;35.15
59971;BME280;45825;45.434;9.116;2022-09-02T13:46:41;100063.66;;;31.83;35.50
59971;BME280;45825;45.434;9.116;2022-09-02T13:49:15;100063.78;;;30.83;36.63
59971;BME280;45825;45.434;9.116;2022-09-02T13:51:41;100056.19;;;31.11;36.61
59971;BME280;45825;45.434;9.116;2022-09-02T13:54:09;100057.31;;;31.40;35.94
59971;BME280;45825;45.434;9.116;2022-09-02T13:56:35;100058.97;;;31.41;35.44
59971;BME280;45825;45.434;9.116;2022-09-02T13:59:01;100049.19;;;30.33;37.53
59971;BME280;45825;45.434;9.116;2022-09-02T14:01:32;100054.41;;;29.96;37.95
59971;BME280;45825;45.434;9.116;2022-09-02T14:04:01;100045.13;;;30.17;37.60
59971;BME280;45825;45.434;9.116;2022-09-02T14:06:29;100032.88;;;30.84;37.32
59971;BME280;45825;45.434;9.116;2022-09-02T14:08:59;100030.22;;;30.77;36.14
59971;BME280;45825;45.434;9.116;2022-09-02T14:11:26;100017.88;;;31.00;36.72
59971;BME280;45825;45.434;9.116;2022-09-02T14:13:53;100019.59;;;30.94;36.62
59971;BME280;45825;45.434;9.116;2022-09-02T14:21:28;100014.06;;;31.20;36.68
59971;BME280;45825;45.434;9.116;2022-09-02T14:23:54;100014.34;;;31.49;35.86
59971;BME280;45825;45.434;9.116;2022-09-02T14:26:26;100009.06;;;31.54;35.76
59971;BME280;45825;45.434;9.116;2022-09-02T14:28:53;100000.66;;;31.25;36.89
59971;BME280;45825;45.434;9.116;2022-09-02T14:31:27;100004.50;;;30.80;36.90
59971;BME280;45825;45.434;9.116;2022-09-02T14:33:57;100003.59;;;30.42;37.68
59971;BME280;45825;45.434;9.116;2022-09-02T14:38:53;100005.94;;;30.38;38.38
59971;BME280;45825;45.434;9.116;2022-09-02T14:41:27;100003.66;;;30.10;38.42
59971;BME280;45825;45.434;9.116;2022-09-02T14:43:57;100016.50;;;29.89;38.70
59971;BME280;45825;45.434;9.116;2022-09-02T14:46:26;100001.63;;;30.05;38.26
59971;BME280;45825;45.434;9.116;2022-09-02T14:48:59;100004.66;;;30.16;38.54
59971;BME280;45825;45.434;9.116;2022-09-02T14:51:32;100006.78;;;29.81;38.24
59971;BME280;45825;45.434;9.116;2022-09-02T14:53:58;100003.53;;;29.20;39.58
59971;BME280;45825;45.434;9.116;2022-09-02T14:57:03;100001.03;;;29.19;39.59
59971;BME280;45825;45.434;9.116;2022-09-02T14:59:28;99997.84;;;29.35;39.52
59971;BME280;45825;45.434;9.116;2022-09-02T15:01:54;99997.53;;;29.57;39.85